Decoded Metar for EPLL (LODZ in POLAND) (IATA:N/A) | Meteo·Mobile Aviation Weather
aviador You're here:

EPLL Decoded Metar

LODZ in POLAND
Report Time2019-11-16 01:00:00
UTC Time2019-11-16 01:32:41
Flight Rules lifr LIFR
Wind110° at 06 kt
W.Decomp.*RWY 07: 4.9 kt HW 3.5 kt RCW
Visibility4300 m
Phenomena:Mist
Clouds:Broken 003 Hf
Overcast 005 Hf
Ceiling300 ft
Temp09°C (ISA -5)
Dew Point09°C (100% RH)
AAT6.6°C
QNH1011 hPa
Density Alt256 ft
Elevation604 ft
Report Wrong Elevation
Raw Report
EPLL 160100Z 11006KT 070V160 4300 BR BKN003 OVC005 09/09 Q1011=

Extra information for EPLL:More info

Metar Taf Metar & Taf Last 4 Metars F.Rules Stats Wind Profile Meteogram Temp Stats Airport Information Weather charts Add Link Nearby VenuesMetar ALERT Operation Metar Decoded Social comments